Flight Briefing

Flight
SQS1034
Departure Arrival
Robert Atty Bessing (WALM)
Click to view NOTAMS
Pontianak Supadio (WIOO)
Click to view NOTAMS
Departure Time Arrival Time
09:00 10:00
Aircraft Distance
PIAGGIO AVAN 487.906
Departure METAR Arrival METAR
WIOO 180930Z 19004KT 7000 -RA FEW011CB BKN012 26/25 Q1007 NOSIG
Route



Notes



Additional Data
View recent IFR Routes data



Data Courtesy of FlightAware